Dayton, OH (45409)

10:26 PM EDT on May 26, 2015 (GMT -0400)
University of Dayton | | Change Station
CLOSE
Current Station
Personal Weather Station
Location: Dayton, OH
Elevation: 797 ft
Nearby Weather Stations

Elev 797 ft 39.74 °N, 84.18 °W | Updated 40 seconds ago

Overcast
Overcast
71.0 °F
Feels Like 71.0 °F
N
5.0
Wind Variable Wind from WSW
Gusts 6.0 mph

Today
High -- | Low -- °F
--% Chance of Precip.
Yesterday
High -- | Low -- °F
Precip. -- in
6:14 AM 8:53 PM
Waxing Gibbous, 63% visible
Pressure 30.01 in
Visibility 10.0 miles
Clouds Mostly Cloudy 1000 ft
Mostly Cloudy 11000 ft
Dew Point 68 °F
Humidity 91%
Rainfall 0.46 in
Snow Depth Not available.
UV 0 out of 12
Pollen 7.20 out of 12
Air Quality Not available.
Flu Activity Local Activity
SPECI KMGY 270209Z AUTO 20008KT 10SM BKN010 BKN110 21/20 A3001 RMK AO2 CIG 008V014 T02110200

More Conditions Fewer Conditions

Pressure 30.01 in
Visibility 10.0 miles
Clouds Mostly Cloudy 1000 ft
Mostly Cloudy 11000 ft
Dew Point 68 °F
Humidity 91%
Rainfall 0.46 in
Snow Depth Not available.
UV 0 out of 12
Pollen 7.20 out of 12
Air Quality Not available.
Flu Activity Local Activity
SPECI KMGY 270209Z AUTO 20008KT 10SM BKN010 BKN110 21/20 A3001 RMK AO2 CIG 008V014 T02110200

More Conditions Fewer Conditions

10-Day Weather Forecast

Almanac

Astronomy

May. 26, 2015 Rise Set
Actual Time
Civil Twilight
Nautical Twilight
Astronomical Twilight
Moon
Length of Visible Light
Length of Day
Tomorrow will be .
, % of the Moon is Illuminated

Today's Extremes

State Highs State Lows

Community

WunderPhotos

Upload Photos

1,824,562 photos uploaded!

WunderBlogs® & News

Nearby

Air Quality

  Air Quality AQ Index Pollutant
Not available.

Snow Depth

Station Depth Elevation

Earthquake Activity

City Distance Mag. Time & Date
Minimum magnitude displayed is 2.5.

Coastal Water Temperatures

Place Temperature

Stations

Nearby Weather Stations

Station Location Temp. Windchill Dew Point Humidity Wind Precip. Elev Updated Type